createdAt,value
2023-03-29T00:01:56.563Z,101194.66
2023-03-29T00:06:58.042Z,101189.16
2023-03-29T00:12:00.258Z,101183.59
2023-03-29T00:17:01.739Z,101174.63
2023-03-29T00:22:05.807Z,101163.31
2023-03-29T00:27:07.282Z,101155.50
2023-03-29T00:32:08.750Z,101148.97
2023-03-29T00:37:10.206Z,101142.78
2023-03-29T00:42:13.002Z,101134.16
2023-03-29T00:47:14.477Z,101131.41
2023-03-29T00:52:15.980Z,101129.69
2023-03-29T00:57:17.514Z,101122.88
2023-03-29T01:02:22.082Z,101110.47
2023-03-29T01:07:48.156Z,101105.13
2023-03-29T01:12:56.248Z,101102.94
2023-03-29T01:17:58.385Z,101093.53
2023-03-29T01:23:45.805Z,101091.81
2023-03-29T01:28:51.657Z,101068.19
2023-03-29T01:33:57.576Z,101063.59
2023-03-29T01:39:00.711Z,101060.59
2023-03-29T01:44:04.934Z,101046.56
2023-03-29T01:49:12.127Z,101038.63
2023-03-29T01:54:19.614Z,101029.72
2023-03-29T01:59:22.660Z,101045.53
2023-03-29T02:04:27.595Z,101038.34
2023-03-29T02:09:29.512Z,101035.63
2023-03-29T02:14:30.977Z,101015.31
2023-03-29T02:19:32.497Z,101026.63
2023-03-29T02:24:33.955Z,101006.22
2023-03-29T02:29:35.405Z,101004.66
2023-03-29T02:34:47.649Z,100994.78
2023-03-29T02:39:49.666Z,100997.97
2023-03-29T02:44:54.043Z,100998.13
2023-03-29T02:49:55.673Z,100996.44
2023-03-29T02:54:57.142Z,100978.13
2023-03-29T02:59:58.724Z,100976.28
2023-03-29T03:05:00.198Z,100966.59
2023-03-29T03:10:03.840Z,100961.44
2023-03-29T03:15:05.727Z,100946.25
2023-03-29T03:20:13.954Z,100925.38
2023-03-29T03:25:16.975Z,100938.47
2023-03-29T03:30:18.833Z,100909.91
2023-03-29T03:35:21.068Z,100910.69
2023-03-29T03:40:22.549Z,100914.69
2023-03-29T03:45:24.697Z,100923.53
2023-03-29T03:50:26.162Z,100917.56
2023-03-29T03:55:29.927Z,100912.41
2023-03-29T04:00:31.397Z,100900.78
2023-03-29T04:05:32.841Z,100909.13
2023-03-29T04:10:34.704Z,100888.22
2023-03-29T04:15:38.943Z,100896.94
2023-03-29T04:20:40.446Z,100888.31
2023-03-29T04:25:41.923Z,100886.38
2023-03-29T04:30:43.544Z,100896.88
2023-03-29T04:35:45.079Z,100879.59
2023-03-29T04:40:46.545Z,100884.72
2023-03-29T04:45:48.076Z,100896.25
2023-03-29T04:50:49.819Z,100903.00
2023-03-29T04:55:52.394Z,100885.63
2023-03-29T05:00:58.177Z,100884.38
2023-03-29T05:06:07.200Z,100869.66
2023-03-29T05:11:10.220Z,100852.75
2023-03-29T05:16:11.734Z,100854.19
2023-03-29T05:21:13.316Z,100857.78
2023-03-29T05:26:15.357Z,100862.38
2023-03-29T05:31:17.420Z,100868.47
2023-03-29T05:36:19.260Z,100865.59
2023-03-29T05:41:20.714Z,100856.50
2023-03-29T05:46:22.216Z,100848.88
2023-03-29T05:51:24.643Z,100854.28
2023-03-29T05:56:26.824Z,100857.03
2023-03-29T06:01:28.580Z,100852.28
2023-03-29T06:06:30.069Z,100848.78
2023-03-29T06:11:33.097Z,100841.44
2023-03-29T06:16:34.627Z,100852.09
2023-03-29T06:21:36.129Z,100850.75
2023-03-29T06:26:37.581Z,100845.31
2023-03-29T06:31:39.100Z,100857.72
2023-03-29T06:36:40.571Z,100848.00
2023-03-29T06:41:42.472Z,100850.16
2023-03-29T06:46:44.976Z,100844.63
2023-03-29T06:51:46.887Z,100850.22
2023-03-29T06:56:48.713Z,100851.69
2023-03-29T07:01:50.276Z,100857.28
2023-03-29T07:07:01.216Z,100851.91
2023-03-29T07:12:02.672Z,100857.22
2023-03-29T07:17:05.716Z,100852.59
2023-03-29T07:22:08.097Z,100860.53
2023-03-29T07:27:09.699Z,100853.97
2023-03-29T07:32:11.312Z,100866.53
2023-03-29T07:37:12.833Z,100868.84
2023-03-29T07:42:14.350Z,100866.41
2023-03-29T07:47:15.813Z,100864.84
2023-03-29T07:52:17.325Z,100864.88
2023-03-29T07:57:18.868Z,100859.19
2023-03-29T08:02:21.064Z,100866.41
2023-03-29T08:07:23.922Z,100853.94
2023-03-29T08:12:25.686Z,100858.41
2023-03-29T08:17:27.165Z,100843.00
2023-03-29T08:22:28.716Z,100853.63
2023-03-29T08:27:30.226Z,100844.94
2023-03-29T08:32:31.780Z,100845.72
2023-03-29T08:37:33.270Z,100836.47
2023-03-29T08:42:56.732Z,100853.00
2023-03-29T08:48:04.062Z,100848.38
2023-03-29T08:53:16.894Z,100852.72
2023-03-29T08:58:20.495Z,100847.16
2023-03-29T09:03:27.818Z,100834.94
2023-03-29T09:08:29.347Z,100845.81
2023-03-29T09:13:38.724Z,100839.97
2023-03-29T09:18:42.443Z,100844.50
2023-03-29T09:23:55.779Z,100836.44
2023-03-29T09:29:20.415Z,100837.53
2023-03-29T09:34:42.108Z,100836.28
2023-03-29T09:39:43.745Z,100840.97
2023-03-29T09:44:50.826Z,100843.13
2023-03-29T09:49:55.275Z,100839.22
2023-03-29T09:54:56.835Z,100834.09
2023-03-29T09:59:58.944Z,100835.66
2023-03-29T10:05:04.273Z,100839.81
2023-03-29T10:10:09.460Z,100824.94
2023-03-29T10:15:23.097Z,100815.84
2023-03-29T10:20:30.698Z,100821.13
2023-03-29T10:25:32.836Z,100827.16
2023-03-29T10:30:37.841Z,100816.34
2023-03-29T10:35:41.453Z,100811.22
2023-03-29T10:40:49.562Z,100800.69
2023-03-29T10:45:55.070Z,100796.69
2023-03-29T10:51:00.948Z,100813.00
2023-03-29T10:56:37.018Z,100812.22
2023-03-29T11:01:56.578Z,100812.66
2023-03-29T11:07:12.055Z,100816.00
2023-03-29T11:12:41.581Z,100816.16
2023-03-29T11:17:57.909Z,100818.34
2023-03-29T11:23:25.552Z,100809.94
2023-03-29T11:28:28.502Z,100815.63
2023-03-29T11:33:37.483Z,100820.28
2023-03-29T11:38:51.131Z,100819.47
2023-03-29T11:44:08.422Z,100815.75
2023-03-29T11:49:19.406Z,100816.75
2023-03-29T11:54:42.534Z,100812.66
2023-03-29T11:59:54.752Z,100813.91
2023-03-29T12:04:57.274Z,100813.50
2023-03-29T12:10:01.631Z,100809.34
2023-03-29T12:15:19.974Z,100805.47
2023-03-29T12:20:28.120Z,100799.44
2023-03-29T12:25:52.188Z,100786.50
2023-03-29T12:30:58.356Z,100781.78
2023-03-29T12:36:21.897Z,100777.16
2023-03-29T12:41:23.583Z,100764.25
2023-03-29T12:46:26.384Z,100755.16
2023-03-29T12:51:34.496Z,100753.56
2023-03-29T12:56:58.424Z,100751.19
2023-03-29T13:02:02.749Z,100757.63
2023-03-29T13:07:04.892Z,100753.25
2023-03-29T13:12:08.950Z,100748.56
2023-03-29T13:17:27.910Z,100752.72
2023-03-29T13:22:53.838Z,100739.16
2023-03-29T13:28:13.018Z,100733.06
2023-03-29T13:33:34.385Z,100739.19
2023-03-29T13:38:46.929Z,100736.25
2023-03-29T13:43:55.310Z,100726.91
2023-03-29T13:49:23.913Z,100730.91
2023-03-29T13:54:36.516Z,100716.56
2023-03-29T14:00:00.661Z,100719.28
2023-03-29T14:05:04.062Z,100728.38
2023-03-29T14:10:05.727Z,100722.22
2023-03-29T14:15:07.748Z,100714.72
2023-03-29T14:20:09.618Z,100711.06
2023-03-29T14:25:17.190Z,100711.13
2023-03-29T14:30:20.351Z,100699.09
2023-03-29T14:35:27.382Z,100707.69
2023-03-29T14:40:29.782Z,100705.75
2023-03-29T14:45:32.097Z,100700.94
2023-03-29T14:50:33.621Z,100696.47
2023-03-29T14:55:36.567Z,100694.69
2023-03-29T15:00:39.320Z,100692.53
2023-03-29T15:05:41.705Z,100694.81
2023-03-29T15:10:45.088Z,100681.94
2023-03-29T15:15:46.700Z,100680.19
2023-03-29T15:20:48.278Z,100681.69
2023-03-29T15:25:58.047Z,100676.75
2023-03-29T15:31:08.264Z,100682.56
2023-03-29T15:36:11.219Z,100667.63
2023-03-29T15:41:16.120Z,100660.59
2023-03-29T15:46:17.651Z,100667.47
2023-03-29T15:51:19.128Z,100651.22
2023-03-29T15:56:20.776Z,100645.84
2023-03-29T16:01:35.507Z,100632.34
2023-03-29T16:06:36.975Z,100627.56
2023-03-29T16:11:39.434Z,100624.13
2023-03-29T16:16:41.032Z,100611.03
2023-03-29T16:21:43.104Z,100607.25
2023-03-29T16:26:44.564Z,100606.25
2023-03-29T16:31:46.755Z,100600.06
2023-03-29T16:36:49.072Z,100598.84
2023-03-29T16:41:50.906Z,100582.47
2023-03-29T16:46:57.424Z,100574.16
2023-03-29T16:51:59.795Z,100568.63
2023-03-29T16:57:01.277Z,100568.28
2023-03-29T17:02:02.780Z,100548.94
2023-03-29T17:07:04.254Z,100561.44
2023-03-29T17:12:05.828Z,100561.94
2023-03-29T17:17:07.532Z,100563.38
2023-03-29T17:22:08.999Z,100552.09
2023-03-29T17:27:10.699Z,100557.09
2023-03-29T17:32:12.187Z,100564.19
2023-03-29T17:37:13.875Z,100565.53
2023-03-29T17:42:16.165Z,100555.31
2023-03-29T17:47:17.650Z,100557.31
2023-03-29T17:52:19.262Z,100570.59
2023-03-29T17:57:20.923Z,100581.00
2023-03-29T18:02:23.467Z,100582.06
2023-03-29T18:07:25.055Z,100566.31
2023-03-29T18:12:27.313Z,100562.28
2023-03-29T18:17:28.798Z,100552.09
2023-03-29T18:22:33.140Z,100530.72
2023-03-29T18:27:34.933Z,100526.94
2023-03-29T18:32:36.611Z,100527.75
2023-03-29T18:37:38.641Z,100535.59
2023-03-29T18:42:40.384Z,100536.06
2023-03-29T18:47:44.050Z,100538.03
2023-03-29T18:52:46.985Z,100554.56
2023-03-29T18:57:48.332Z,100539.47
2023-03-29T19:02:49.885Z,100539.94
2023-03-29T19:07:54.164Z,100528.19
2023-03-29T19:12:56.029Z,100527.91
2023-03-29T19:17:57.578Z,100507.88
2023-03-29T19:22:59.067Z,100504.88
2023-03-29T19:28:00.570Z,100498.13
2023-03-29T19:33:02.142Z,100492.66
2023-03-29T19:38:03.650Z,100493.50
2023-03-29T19:43:05.097Z,100490.81
2023-03-29T19:48:07.061Z,100484.13
2023-03-29T19:53:08.992Z,100482.31
2023-03-29T19:58:10.499Z,100486.34
2023-03-29T20:03:13.852Z,100483.75
2023-03-29T20:08:15.634Z,100485.00
2023-03-29T20:13:24.455Z,100488.59
2023-03-29T20:18:33.312Z,100471.88
2023-03-29T20:23:35.155Z,100470.22
2023-03-29T20:28:39.427Z,100466.94
2023-03-29T20:33:41.418Z,100467.16
2023-03-29T20:38:42.882Z,100454.16
2023-03-29T20:43:46.119Z,100446.19
2023-03-29T20:48:53.337Z,100422.34
2023-03-29T20:54:02.780Z,100412.84
2023-03-29T20:59:04.381Z,100410.91
2023-03-29T21:04:08.227Z,100384.94
2023-03-29T21:09:09.699Z,100374.47
2023-03-29T21:14:11.176Z,100363.81
2023-03-29T21:19:12.850Z,100357.72
2023-03-29T21:24:14.360Z,100342.91
2023-03-29T21:29:15.848Z,100336.88
2023-03-29T21:34:17.294Z,100330.72
2023-03-29T21:39:18.743Z,100339.91
2023-03-29T21:44:20.337Z,100330.13
2023-03-29T21:49:21.817Z,100315.44
2023-03-29T21:54:23.273Z,100309.97
2023-03-29T21:59:24.748Z,100298.22
2023-03-29T22:04:35.831Z,100286.28
2023-03-29T22:09:41.193Z,100278.09
2023-03-29T22:14:42.675Z,100270.16
2023-03-29T22:19:44.169Z,100278.56
2023-03-29T22:24:45.693Z,100266.97
2023-03-29T22:29:47.138Z,100253.88
2023-03-29T22:34:48.578Z,100237.59
2023-03-29T22:39:50.075Z,100239.03
2023-03-29T22:44:51.548Z,100228.44
2023-03-29T22:49:53.025Z,100214.72
2023-03-29T22:54:54.470Z,100216.66
2023-03-29T22:59:55.928Z,100201.44
2023-03-29T23:04:57.430Z,100186.69
2023-03-29T23:09:59.036Z,100169.00
2023-03-29T23:15:00.523Z,100163.31
2023-03-29T23:20:02.065Z,100144.34
2023-03-29T23:25:03.619Z,100132.16
2023-03-29T23:30:07.472Z,100125.97
2023-03-29T23:35:09.053Z,100120.22
2023-03-29T23:40:16.907Z,100115.81
2023-03-29T23:45:18.493Z,100100.00
2023-03-29T23:50:20.016Z,100091.59
2023-03-29T23:55:21.482Z,100076.91
